createdAt,value
2023-04-28T00:01:50.913Z,5.90
2023-04-28T00:04:52.881Z,4.80
2023-04-28T00:07:54.661Z,4.00
2023-04-28T00:10:56.302Z,4.07
2023-04-28T00:13:57.912Z,4.50
2023-04-28T00:16:59.571Z,3.93
2023-04-28T00:20:01.143Z,4.43
2023-04-28T00:23:02.874Z,4.00
2023-04-28T00:26:04.664Z,4.47
2023-04-28T00:29:06.247Z,4.97
2023-04-28T00:32:07.962Z,3.90
2023-04-28T00:35:09.774Z,4.10
2023-04-28T00:38:11.441Z,4.40
2023-04-28T00:41:13.100Z,4.33
2023-04-28T00:44:14.893Z,4.50
2023-04-28T00:47:19.049Z,5.77
2023-04-28T00:50:21.360Z,5.30
2023-04-28T00:53:23.436Z,4.50
2023-04-28T00:56:27.502Z,4.40
2023-04-28T00:59:30.261Z,4.40
2023-04-28T01:02:32.092Z,4.27
2023-04-28T01:05:34.957Z,4.13
2023-04-28T01:08:38.059Z,4.67
2023-04-28T01:11:39.627Z,4.30
2023-04-28T01:14:41.344Z,4.47
2023-04-28T01:17:43.304Z,4.20
2023-04-28T01:20:45.083Z,4.40
2023-04-28T01:23:46.853Z,4.13
2023-04-28T01:26:48.404Z,4.47
2023-04-28T01:29:49.984Z,4.10
2023-04-28T01:32:51.736Z,4.10
2023-04-28T01:35:57.981Z,4.63
2023-04-28T01:38:59.785Z,4.33
2023-04-28T01:42:02.155Z,4.70
2023-04-28T01:45:05.247Z,4.57
2023-04-28T01:48:06.976Z,5.20
2023-04-28T01:51:08.565Z,4.70
2023-04-28T01:54:10.300Z,5.10
2023-04-28T01:57:11.843Z,5.13
2023-04-28T02:00:13.825Z,5.40
2023-04-28T02:03:15.768Z,6.00
2023-04-28T02:06:17.688Z,6.40
2023-04-28T02:09:19.256Z,5.80
2023-04-28T02:12:20.830Z,6.00
2023-04-28T02:15:22.409Z,5.93
2023-04-28T02:18:23.977Z,5.63
2023-04-28T02:21:26.376Z,6.70
2023-04-28T02:24:27.935Z,6.20
2023-04-28T02:27:29.521Z,6.03
2023-04-28T02:30:31.388Z,6.50
2023-04-28T02:33:33.375Z,6.43
2023-04-28T02:36:34.964Z,5.80
2023-04-28T02:39:36.565Z,6.30
2023-04-28T02:42:38.193Z,6.10
2023-04-28T02:45:40.340Z,6.67
2023-04-28T02:48:42.033Z,6.40
2023-04-28T02:51:43.596Z,6.70
2023-04-28T02:54:48.756Z,6.40
2023-04-28T02:57:50.451Z,6.10
2023-04-28T03:00:52.136Z,5.60
2023-04-28T03:03:53.873Z,6.40
2023-04-28T03:06:55.593Z,6.63
2023-04-28T03:09:57.171Z,6.90
2023-04-28T03:12:58.839Z,7.13
2023-04-28T03:16:00.509Z,6.70
2023-04-28T03:19:02.199Z,7.20
2023-04-28T03:22:03.833Z,6.77
2023-04-28T03:25:05.910Z,7.10
2023-04-28T03:28:07.778Z,7.40
2023-04-28T03:31:09.343Z,6.20
2023-04-28T03:34:10.888Z,6.50
2023-04-28T03:37:12.461Z,6.90
2023-04-28T03:40:14.169Z,7.03
2023-04-28T03:43:16.106Z,7.00
2023-04-28T03:46:17.758Z,7.00
2023-04-28T03:49:19.681Z,7.00
2023-04-28T03:52:21.320Z,7.40
2023-04-28T03:55:23.024Z,7.47
2023-04-28T03:58:24.679Z,7.30
2023-04-28T04:01:26.442Z,7.43
2023-04-28T04:04:28.316Z,7.30
2023-04-28T04:07:30.102Z,7.50
2023-04-28T04:10:31.710Z,7.70
2023-04-28T04:13:34.629Z,7.30
2023-04-28T04:16:37.110Z,7.10
2023-04-28T04:19:38.691Z,7.10
2023-04-28T04:22:40.570Z,7.23
2023-04-28T04:25:42.627Z,7.37
2023-04-28T04:28:44.227Z,7.50
2023-04-28T04:31:45.991Z,7.90
2023-04-28T04:34:47.718Z,7.00
2023-04-28T04:37:49.303Z,7.90
2023-04-28T04:40:51.038Z,8.60
2023-04-28T04:43:52.705Z,8.30
2023-04-28T04:46:54.394Z,8.80
2023-04-28T04:49:56.550Z,8.17
2023-04-28T04:52:58.263Z,8.27
2023-04-28T04:56:00.310Z,7.83
2023-04-28T04:59:02.749Z,8.40
2023-04-28T05:02:04.361Z,8.00
2023-04-28T05:05:19.818Z,8.40
2023-04-28T05:08:22.573Z,8.13
2023-04-28T05:11:24.125Z,8.17
2023-04-28T05:14:25.848Z,7.90
2023-04-28T05:17:27.496Z,9.30
2023-04-28T05:20:29.310Z,8.07
2023-04-28T05:23:31.081Z,7.50
2023-04-28T05:26:32.787Z,9.20
2023-04-28T05:29:34.362Z,8.13
2023-04-28T05:32:37.724Z,8.50
2023-04-28T05:35:39.709Z,9.17
2023-04-28T05:38:41.298Z,8.40
2023-04-28T05:41:42.924Z,9.27
2023-04-28T05:44:44.921Z,8.83
2023-04-28T05:47:46.655Z,8.60
2023-04-28T05:50:48.524Z,9.83
2023-04-28T05:53:50.153Z,9.40
2023-04-28T05:56:51.801Z,13.20
2023-04-28T05:59:53.381Z,9.30
2023-04-28T06:02:55.292Z,9.60
2023-04-28T06:05:57.144Z,10.33
2023-04-28T06:08:58.891Z,10.33
2023-04-28T06:12:00.593Z,39.07
2023-04-28T06:15:02.287Z,12.33
2023-04-28T06:18:06.359Z,13.97
2023-04-28T06:21:08.098Z,11.30
2023-04-28T06:24:09.760Z,11.57
2023-04-28T06:27:11.875Z,12.00
2023-04-28T06:30:22.044Z,11.10
2023-04-28T06:33:23.654Z,13.67
2023-04-28T06:36:25.255Z,12.43
2023-04-28T06:39:27.637Z,13.57
2023-04-28T06:42:29.565Z,12.33
2023-04-28T06:45:31.472Z,12.50
2023-04-28T06:48:33.122Z,13.70
2023-04-28T06:51:34.676Z,11.83
2023-04-28T06:54:38.384Z,13.20
2023-04-28T06:57:40.299Z,12.17
2023-04-28T07:00:41.912Z,12.03
2023-04-28T07:03:43.582Z,12.73
2023-04-28T07:06:45.453Z,12.17
2023-04-28T07:09:47.041Z,12.40
2023-04-28T07:12:51.852Z,13.63
2023-04-28T07:15:53.633Z,14.30
2023-04-28T07:18:55.593Z,32.10
2023-04-28T07:21:57.201Z,14.30
2023-04-28T07:24:58.834Z,13.50
2023-04-28T07:28:03.755Z,13.63
2023-04-28T07:31:05.505Z,13.60
2023-04-28T07:34:07.202Z,13.07
2023-04-28T07:37:09.664Z,13.23
2023-04-28T07:40:11.513Z,12.63
2023-04-28T07:43:13.428Z,13.20
2023-04-28T07:46:15.203Z,13.90
2023-04-28T07:49:17.341Z,13.03
2023-04-28T07:52:19.967Z,13.70
2023-04-28T07:55:22.031Z,14.00
2023-04-28T07:58:23.711Z,12.47
2023-04-28T08:01:25.443Z,13.77
2023-04-28T08:04:27.432Z,12.60
2023-04-28T08:07:29.864Z,13.50
2023-04-28T08:10:31.621Z,13.33
2023-04-28T08:13:33.687Z,13.33
2023-04-28T08:16:38.391Z,13.20
2023-04-28T08:19:40.126Z,12.47
2023-04-28T08:22:42.242Z,13.50
2023-04-28T08:25:43.891Z,13.03
2023-04-28T08:28:47.613Z,14.30
2023-04-28T08:31:49.578Z,14.27
2023-04-28T08:34:51.278Z,13.70
2023-04-28T08:37:53.549Z,14.90
2023-04-28T08:40:55.217Z,16.23
2023-04-28T08:43:59.323Z,14.97
2023-04-28T08:47:02.856Z,15.40
2023-04-28T08:50:08.584Z,16.77
2023-04-28T08:53:13.704Z,16.03
2023-04-28T08:56:17.112Z,22.80
2023-04-28T08:59:19.351Z,16.40
2023-04-28T09:02:21.344Z,18.80
2023-04-28T09:05:23.441Z,17.23
2023-04-28T09:08:25.576Z,18.43
2023-04-28T09:11:27.200Z,19.17
2023-04-28T09:14:30.255Z,18.60
2023-04-28T09:17:31.963Z,20.27
2023-04-28T09:20:35.060Z,18.00
2023-04-28T09:23:50.532Z,18.50
2023-04-28T09:26:53.519Z,19.93
2023-04-28T09:29:56.642Z,19.03
2023-04-28T09:33:05.830Z,18.63
2023-04-28T09:36:07.666Z,18.80
2023-04-28T09:39:09.355Z,18.83
2023-04-28T09:42:11.005Z,19.37
2023-04-28T09:45:14.931Z,21.37
2023-04-28T09:48:17.236Z,24.37
2023-04-28T09:51:21.109Z,19.30
2023-04-28T09:54:23.595Z,19.03
2023-04-28T09:57:25.312Z,19.60
2023-04-28T10:00:27.323Z,20.20
2023-04-28T10:03:32.243Z,19.37
2023-04-28T10:06:36.283Z,20.63
2023-04-28T10:09:39.086Z,21.13
2023-04-28T10:12:41.216Z,18.83
2023-04-28T10:15:43.067Z,19.30
2023-04-28T10:18:45.744Z,20.17
2023-04-28T10:22:00.645Z,19.40
2023-04-28T10:25:25.273Z,17.43
2023-04-28T10:28:27.457Z,18.80
2023-04-28T10:31:29.899Z,18.93
2023-04-28T10:34:31.698Z,18.50
2023-04-28T10:38:09.524Z,17.20
2023-04-28T10:41:31.716Z,17.30
2023-04-28T10:44:33.369Z,18.13
2023-04-28T10:48:04.393Z,17.70
2023-04-28T10:51:07.403Z,17.10
2023-04-28T10:54:09.438Z,19.43
2023-04-28T10:57:21.298Z,16.83
2023-04-28T11:00:28.519Z,16.83
2023-04-28T11:03:54.457Z,16.40
2023-04-28T11:07:16.230Z,17.40
2023-04-28T11:10:18.335Z,19.07
2023-04-28T11:13:28.287Z,18.43
2023-04-28T11:16:30.705Z,17.97
2023-04-28T11:19:34.962Z,17.87
2023-04-28T11:22:37.033Z,17.20
2023-04-28T11:25:54.829Z,15.80
2023-04-28T11:28:58.321Z,14.87
2023-04-28T11:32:00.351Z,15.20
2023-04-28T11:35:04.324Z,15.20
2023-04-28T11:38:05.882Z,17.57
2023-04-28T11:41:07.654Z,16.90
2023-04-28T11:44:20.437Z,16.60
2023-04-28T11:47:32.787Z,15.80
2023-04-28T11:50:38.271Z,16.80
2023-04-28T11:53:44.077Z,17.27
2023-04-28T11:56:45.789Z,16.77
2023-04-28T11:59:47.856Z,17.17
2023-04-28T12:02:50.998Z,16.13
2023-04-28T12:05:52.905Z,17.13
2023-04-28T12:08:54.595Z,15.97
2023-04-28T12:12:02.363Z,15.33
2023-04-28T12:15:05.638Z,14.50
2023-04-28T12:18:11.903Z,15.00
2023-04-28T12:21:21.476Z,14.37
2023-04-28T12:24:24.555Z,15.03
2023-04-28T12:27:26.831Z,14.00
2023-04-28T12:30:30.187Z,13.10
2023-04-28T12:33:38.486Z,13.30
2023-04-28T12:36:40.315Z,13.17
2023-04-28T12:39:42.408Z,13.00
2023-04-28T12:42:44.372Z,11.57
2023-04-28T12:45:45.987Z,11.40
2023-04-28T12:48:47.725Z,10.63
2023-04-28T12:51:49.735Z,11.00
2023-04-28T12:54:51.403Z,10.60
2023-04-28T12:57:53.053Z,11.27
2023-04-28T13:00:54.641Z,10.80
2023-04-28T13:03:56.520Z,10.10
2023-04-28T13:06:58.804Z,8.93
2023-04-28T13:10:00.404Z,8.63
2023-04-28T13:13:01.962Z,8.17
2023-04-28T13:16:04.679Z,6.83
2023-04-28T13:19:09.473Z,7.43
2023-04-28T13:22:11.278Z,8.13
2023-04-28T13:25:12.888Z,6.00
2023-04-28T13:28:15.755Z,5.77
2023-04-28T13:31:17.489Z,5.27
2023-04-28T13:34:19.155Z,6.60
2023-04-28T13:37:20.770Z,7.23
2023-04-28T13:40:22.450Z,7.17
2023-04-28T13:43:24.262Z,9.30
2023-04-28T13:46:25.860Z,9.50
2023-04-28T13:49:27.974Z,9.50
2023-04-28T13:52:29.600Z,9.47
2023-04-28T13:55:31.205Z,7.93
2023-04-28T13:58:33.700Z,8.87
2023-04-28T14:01:35.691Z,7.80
2023-04-28T14:04:38.142Z,8.07
2023-04-28T14:07:40.012Z,7.83
2023-04-28T14:10:41.635Z,7.60
2023-04-28T14:13:43.293Z,8.17
2023-04-28T14:16:45.168Z,7.07
2023-04-28T14:19:47.421Z,7.00
2023-04-28T14:22:49.196Z,6.50
2023-04-28T14:25:56.003Z,6.50
2023-04-28T14:28:57.902Z,7.23
2023-04-28T14:31:59.488Z,5.63
2023-04-28T14:35:02.960Z,5.90
2023-04-28T14:38:04.709Z,5.23
2023-04-28T14:41:06.306Z,6.00
2023-04-28T14:44:08.183Z,5.73
2023-04-28T14:47:09.772Z,5.63
2023-04-28T14:50:13.836Z,5.07
2023-04-28T14:53:15.820Z,4.13
2023-04-28T14:56:19.028Z,4.23
2023-04-28T14:59:21.325Z,4.10
2023-04-28T15:02:29.054Z,4.40
2023-04-28T15:05:30.894Z,3.90
2023-04-28T15:08:33.291Z,4.17
2023-04-28T15:11:34.915Z,4.20
2023-04-28T15:14:36.605Z,3.33
2023-04-28T15:17:38.717Z,3.60
2023-04-28T15:20:40.373Z,3.03
2023-04-28T15:23:42.298Z,3.10
2023-04-28T15:26:46.938Z,2.67
2023-04-28T15:29:48.546Z,2.27
2023-04-28T15:32:50.479Z,2.00
2023-04-28T15:35:52.515Z,2.33
2023-04-28T15:38:54.720Z,2.63
2023-04-28T15:41:56.363Z,2.20
2023-04-28T15:44:58.073Z,2.67
2023-04-28T15:47:59.850Z,2.17
2023-04-28T15:51:01.721Z,3.50
2023-04-28T15:54:03.427Z,3.33
2023-04-28T15:57:05.812Z,2.07
2023-04-28T16:00:09.290Z,2.60
2023-04-28T16:03:11.186Z,2.00
2023-04-28T16:06:13.293Z,1.77
2023-04-28T16:09:14.899Z,1.47
2023-04-28T16:12:16.554Z,1.93
2023-04-28T16:15:19.087Z,1.67
2023-04-28T16:18:20.740Z,1.80
2023-04-28T16:21:22.347Z,1.70
2023-04-28T16:24:24.656Z,1.57
2023-04-28T16:27:26.834Z,1.77
2023-04-28T16:30:28.442Z,1.40
2023-04-28T16:33:30.202Z,1.50
2023-04-28T16:36:34.840Z,1.80
2023-04-28T16:39:36.496Z,2.10
2023-04-28T16:42:38.736Z,1.90
2023-04-28T16:45:40.580Z,1.43
2023-04-28T16:48:42.174Z,1.40
2023-04-28T16:52:01.912Z,1.43
2023-04-28T16:55:04.893Z,1.53
2023-04-28T16:58:06.548Z,1.80
2023-04-28T17:01:08.739Z,3.93
2023-04-28T17:04:10.671Z,6.70
2023-04-28T17:07:12.526Z,4.77
2023-04-28T17:10:14.111Z,5.00
2023-04-28T17:13:15.717Z,5.67
2023-04-28T17:16:17.483Z,3.83
2023-04-28T17:19:19.114Z,3.40
2023-04-28T17:22:20.697Z,1.87
2023-04-28T17:25:23.392Z,1.40
2023-04-28T17:28:25.785Z,1.30
2023-04-28T17:31:28.541Z,1.20
2023-04-28T17:34:30.950Z,1.40
2023-04-28T17:37:33.978Z,1.13
2023-04-28T17:40:35.574Z,1.70
2023-04-28T17:43:37.675Z,1.30
2023-04-28T17:46:39.316Z,1.60
2023-04-28T17:49:41.768Z,1.77
2023-04-28T17:52:44.112Z,1.60
2023-04-28T17:55:45.993Z,1.50
2023-04-28T17:58:47.592Z,2.33
2023-04-28T18:01:49.182Z,1.20
2023-04-28T18:04:51.552Z,1.30
2023-04-28T18:07:53.458Z,1.13
2023-04-28T18:10:55.725Z,1.27
2023-04-28T18:13:58.653Z,1.97
2023-04-28T18:17:00.610Z,1.50
2023-04-28T18:20:02.157Z,1.50
2023-04-28T18:23:03.833Z,1.20
2023-04-28T18:26:05.552Z,1.50
2023-04-28T18:29:07.118Z,1.27
2023-04-28T18:32:10.816Z,1.33
2023-04-28T18:35:15.000Z,1.00
2023-04-28T18:38:16.626Z,1.00
2023-04-28T18:41:18.626Z,0.90
2023-04-28T18:44:20.420Z,1.57
2023-04-28T18:47:23.226Z,1.43
2023-04-28T18:50:25.179Z,1.40
2023-04-28T18:53:27.836Z,2.10
2023-04-28T18:56:29.481Z,2.53
2023-04-28T18:59:31.189Z,2.00
2023-04-28T19:02:33.095Z,1.30
2023-04-28T19:05:35.259Z,1.07
2023-04-28T19:08:39.052Z,1.37
2023-04-28T19:11:40.718Z,1.60
2023-04-28T19:14:42.281Z,1.70
2023-04-28T19:17:44.390Z,1.80
2023-04-28T19:20:46.535Z,2.20
2023-04-28T19:23:49.740Z,1.60
2023-04-28T19:26:51.802Z,1.70
2023-04-28T19:29:54.378Z,1.70
2023-04-28T19:32:56.239Z,1.80
2023-04-28T19:35:59.809Z,2.00
2023-04-28T19:39:01.414Z,1.77
2023-04-28T19:42:04.379Z,2.30
2023-04-28T19:45:07.209Z,2.33
2023-04-28T19:48:09.169Z,2.40
2023-04-28T19:51:11.042Z,4.83
2023-04-28T19:54:13.876Z,7.63
2023-04-28T19:57:17.368Z,5.03
2023-04-28T20:00:19.482Z,2.77
2023-04-28T20:03:21.279Z,2.60
2023-04-28T20:06:23.991Z,3.17
2023-04-28T20:09:26.007Z,3.07
2023-04-28T20:12:27.614Z,3.10
2023-04-28T20:15:29.164Z,2.70
2023-04-28T20:18:31.337Z,11.97
2023-04-28T20:21:35.039Z,4.43
2023-04-28T20:24:37.282Z,4.33
2023-04-28T20:27:39.273Z,2.87
2023-04-28T20:30:41.971Z,4.40
2023-04-28T20:33:43.543Z,12.20
2023-04-28T20:36:45.187Z,5.97
2023-04-28T20:39:47.364Z,6.33
2023-04-28T20:42:49.724Z,6.80
2023-04-28T20:45:51.988Z,3.47
2023-04-28T20:48:53.759Z,3.40
2023-04-28T20:52:02.601Z,24.00
2023-04-28T20:55:04.759Z,5.23
2023-04-28T20:58:07.401Z,6.20
2023-04-28T21:01:09.398Z,90.87
2023-04-28T21:04:11.317Z,29.60
2023-04-28T21:07:13.489Z,4.80
2023-04-28T21:10:15.411Z,3.90
2023-04-28T21:13:17.139Z,2.90
2023-04-28T21:16:21.494Z,3.13
2023-04-28T21:19:23.463Z,3.23
2023-04-28T21:22:25.128Z,3.50
2023-04-28T21:25:26.679Z,3.90
2023-04-28T21:28:28.577Z,4.37
2023-04-28T21:31:30.733Z,4.97
2023-04-28T21:34:35.464Z,5.17
2023-04-28T21:37:37.057Z,6.17
2023-04-28T21:40:38.624Z,5.53
2023-04-28T21:43:40.432Z,5.97
2023-04-28T21:46:42.068Z,6.23
2023-04-28T21:49:44.233Z,6.47
2023-04-28T21:52:46.241Z,6.73
2023-04-28T21:55:47.887Z,6.40
2023-04-28T21:58:49.508Z,5.83
2023-04-28T22:01:52.248Z,6.90
2023-04-28T22:04:54.567Z,7.20
2023-04-28T22:07:56.194Z,6.90
2023-04-28T22:10:58.080Z,7.20
2023-04-28T22:13:59.652Z,9.13
2023-04-28T22:17:01.291Z,7.90
2023-04-28T22:20:03.122Z,7.30
2023-04-28T22:23:04.699Z,7.83
2023-04-28T22:26:06.343Z,8.47
2023-04-28T22:29:07.967Z,9.07
2023-04-28T22:32:12.460Z,9.10
2023-04-28T22:35:14.171Z,12.13
2023-04-28T22:38:15.745Z,10.30
2023-04-28T22:41:17.323Z,14.93
2023-04-28T22:44:18.984Z,12.63
2023-04-28T22:47:20.876Z,11.93
2023-04-28T22:50:22.531Z,10.37
2023-04-28T22:53:24.135Z,14.50
2023-04-28T22:56:25.908Z,18.20
2023-04-28T22:59:27.577Z,11.97
2023-04-28T23:02:29.459Z,8.70
2023-04-28T23:05:31.549Z,10.10
2023-04-28T23:08:35.107Z,10.20
2023-04-28T23:11:36.699Z,9.63
2023-04-28T23:14:38.316Z,10.90
2023-04-28T23:17:41.360Z,9.40
2023-04-28T23:20:43.051Z,7.10
2023-04-28T23:23:44.616Z,7.40
2023-04-28T23:26:46.313Z,7.03
2023-04-28T23:29:47.998Z,6.30
2023-04-28T23:32:49.743Z,7.13
2023-04-28T23:35:51.358Z,6.90
2023-04-28T23:38:52.892Z,6.40
2023-04-28T23:41:54.466Z,6.17
2023-04-28T23:44:56.052Z,6.80
2023-04-28T23:47:57.714Z,6.63
2023-04-28T23:50:59.482Z,6.03
2023-04-28T23:54:01.480Z,6.53
2023-04-28T23:57:03.293Z,5.70
